createdAt,value
2019-04-21T00:00:00.574Z,40.20
2019-04-21T00:02:32.882Z,39.50
2019-04-21T00:05:22.906Z,39.40
2019-04-21T00:07:53.839Z,39.50
2019-04-21T00:10:38.508Z,39.50
2019-04-21T00:12:47.207Z,39.40
2019-04-21T00:15:16.120Z,39.40
2019-04-21T00:17:34.742Z,39.40
2019-04-21T00:20:15.487Z,39.50
2019-04-21T00:22:46.727Z,39.50
2019-04-21T00:25:21.046Z,39.70
2019-04-21T00:27:50.406Z,39.50
2019-04-21T00:30:33.025Z,39.50
2019-04-21T00:32:49.992Z,39.60
2019-04-21T00:35:11.715Z,39.50
2019-04-21T00:37:54.709Z,39.90
2019-04-21T00:40:27.811Z,39.50
2019-04-21T00:42:55.680Z,39.50
2019-04-21T00:45:25.192Z,39.50
2019-04-21T00:48:03.912Z,39.50
2019-04-21T00:50:40.457Z,39.50
2019-04-21T00:53:24.561Z,39.50
2019-04-21T00:55:52.027Z,39.60
2019-04-21T00:58:28.656Z,39.60
2019-04-21T01:00:51.204Z,39.50
2019-04-21T01:03:26.813Z,39.60
2019-04-21T01:06:10.025Z,39.60
2019-04-21T01:08:25.395Z,39.50
2019-04-21T01:10:47.808Z,39.50
2019-04-21T01:13:27.359Z,39.50
2019-04-21T01:16:03.328Z,39.60
2019-04-21T01:18:31.381Z,39.50
2019-04-21T01:20:35.797Z,39.60
2019-04-21T01:23:04.655Z,40.30
2019-04-21T01:25:41.208Z,39.70
2019-04-21T01:28:18.853Z,39.50
2019-04-21T01:30:53.438Z,39.50
2019-04-21T01:33:30.724Z,39.50
2019-04-21T01:35:54.885Z,39.50
2019-04-21T01:38:28.842Z,39.50
2019-04-21T01:41:05.146Z,39.50
2019-04-21T01:43:27.939Z,39.50
2019-04-21T01:45:53.494Z,39.60
2019-04-21T01:48:24.102Z,39.50
2019-04-21T01:50:56.398Z,39.40
2019-04-21T01:53:54.858Z,39.60
2019-04-21T01:56:40.137Z,39.50
2019-04-21T01:59:01.337Z,39.50
2019-04-21T02:01:38.851Z,39.50
2019-04-21T02:04:19.743Z,39.50
2019-04-21T02:06:47.816Z,39.50
2019-04-21T02:09:10.080Z,39.40
2019-04-21T02:11:50.252Z,39.40
2019-04-21T02:14:19.595Z,39.50
2019-04-21T02:16:51.045Z,39.40
2019-04-21T02:19:13.858Z,39.40
2019-04-21T02:21:39.376Z,39.50
2019-04-21T02:24:23.580Z,39.40
2019-04-21T02:26:47.733Z,39.50
2019-04-21T02:29:22.998Z,39.40
2019-04-21T02:32:01.946Z,39.40
2019-04-21T02:34:37.456Z,40.10
2019-04-21T02:39:35.516Z,39.40
2019-04-21T02:44:39.352Z,39.40
2019-04-21T02:47:09.576Z,39.30
2019-04-21T02:57:14.380Z,39.30
2019-04-21T03:00:07.018Z,39.30
2019-04-21T03:05:41.637Z,39.30
2019-04-21T03:10:39.006Z,39.40
2019-04-21T03:13:08.931Z,39.30
2019-04-21T03:18:04.961Z,39.30
2019-04-21T03:20:56.141Z,39.20
2019-04-21T03:28:14.352Z,39.20
2019-04-21T03:38:14.752Z,39.10
2019-04-21T03:40:44.290Z,39.10
2019-04-21T03:43:14.495Z,39.90
2019-04-21T03:45:49.589Z,39.20
2019-04-21T03:48:24.171Z,39.10
2019-04-21T03:50:41.167Z,39.10
2019-04-21T03:58:24.558Z,39.10
2019-04-21T04:04:14.971Z,39.10
2019-04-21T04:06:56.522Z,39.10
2019-04-21T04:11:53.149Z,39.10
2019-04-21T04:19:40.116Z,39.00
2019-04-21T04:24:34.440Z,39.00
2019-04-21T04:26:57.822Z,39.00
2019-04-21T04:29:24.097Z,39.00
2019-04-21T04:34:29.297Z,39.00
2019-04-21T04:37:05.437Z,39.00
2019-04-21T04:40:15.916Z,38.90
2019-04-21T04:42:56.857Z,39.00
2019-04-21T04:50:35.958Z,38.90
2019-04-21T04:55:26.303Z,38.90
2019-04-21T05:00:38.302Z,38.90
2019-04-21T05:03:03.614Z,38.90
2019-04-21T05:05:48.771Z,38.90
2019-04-21T05:08:16.523Z,38.90
2019-04-21T05:10:41.634Z,38.90
2019-04-21T05:13:02.318Z,39.00
2019-04-21T05:15:38.267Z,39.10
2019-04-21T05:18:13.725Z,39.00
2019-04-21T05:20:26.068Z,39.20
2019-04-21T05:23:02.580Z,39.10
2019-04-21T05:25:23.447Z,39.10
2019-04-21T05:27:52.560Z,39.20
2019-04-21T05:30:43.512Z,39.30
2019-04-21T05:33:44.862Z,39.40
2019-04-21T05:36:29.611Z,39.10
2019-04-21T05:39:10.810Z,38.70
2019-04-21T05:41:31.430Z,38.40
2019-04-21T05:44:09.901Z,39.30
2019-04-21T05:46:53.415Z,41.00
2019-04-21T05:49:27.998Z,42.30
2019-04-21T05:51:55.663Z,43.30
2019-04-21T05:54:52.826Z,43.80
2019-04-21T05:56:59.855Z,43.30
2019-04-21T05:59:33.942Z,42.80
2019-04-21T06:02:13.784Z,42.80
2019-04-21T06:05:03.153Z,42.50
2019-04-21T06:07:15.479Z,42.20
2019-04-21T06:09:43.940Z,42.10
2019-04-21T06:12:08.857Z,41.80
2019-04-21T06:14:46.456Z,41.70
2019-04-21T06:17:19.004Z,41.60
2019-04-21T06:22:07.656Z,41.40
2019-04-21T06:25:08.934Z,41.20
2019-04-21T06:27:19.437Z,41.10
2019-04-21T06:29:43.912Z,40.90
2019-04-21T06:35:07.222Z,40.70
2019-04-21T06:40:09.345Z,40.60
2019-04-21T06:42:25.718Z,40.70
2019-04-21T06:45:07.299Z,40.70
2019-04-21T06:47:35.082Z,40.70
2019-04-21T06:50:20.630Z,40.70
2019-04-21T06:55:12.496Z,41.00
2019-04-21T06:57:34.763Z,40.00
2019-04-21T07:00:04.300Z,39.20
2019-04-21T07:02:42.287Z,39.10
2019-04-21T07:05:21.791Z,39.20
2019-04-21T07:07:35.157Z,39.20
2019-04-21T07:10:24.237Z,39.30
2019-04-21T07:12:37.069Z,39.10
2019-04-21T07:15:03.464Z,38.80
2019-04-21T07:17:35.825Z,38.50
2019-04-21T07:25:12.360Z,38.50
2019-04-21T07:27:42.685Z,38.50
2019-04-21T07:30:14.806Z,38.50
2019-04-21T07:32:49.816Z,38.50
2019-04-21T07:35:15.022Z,38.60
2019-04-21T07:37:41.354Z,38.60
2019-04-21T07:40:09.305Z,38.70
2019-04-21T07:42:38.463Z,38.70
2019-04-21T07:45:09.074Z,38.80
2019-04-21T07:47:50.725Z,38.80
2019-04-21T07:50:27.378Z,38.90
2019-04-21T07:53:14.464Z,37.80
2019-04-21T07:58:12.884Z,34.30
2019-04-21T08:03:15.947Z,33.00
2019-04-21T08:05:50.614Z,32.70
2019-04-21T08:08:12.136Z,32.40
2019-04-21T08:10:45.303Z,32.20
2019-04-21T08:13:25.266Z,32.70
2019-04-21T08:15:49.504Z,31.90
2019-04-21T08:18:20.408Z,31.80
2019-04-21T08:20:41.906Z,31.70
2019-04-21T08:23:20.321Z,31.50
2019-04-21T08:26:03.693Z,31.40
2019-04-21T08:28:20.477Z,31.40
2019-04-21T08:30:50.250Z,31.30
2019-04-21T08:33:29.211Z,31.30
2019-04-21T08:36:20.189Z,31.30
2019-04-21T08:38:20.373Z,31.30
2019-04-21T08:40:51.089Z,31.30
2019-04-21T08:43:27.973Z,31.40
2019-04-21T08:45:57.426Z,32.00
2019-04-21T08:48:25.649Z,30.90
2019-04-21T08:51:00.150Z,30.90
2019-04-21T08:53:25.964Z,31.10
2019-04-21T08:56:15.006Z,31.10
2019-04-21T08:59:07.493Z,30.90
2019-04-21T09:01:47.433Z,31.30
2019-04-21T09:04:21.257Z,31.40
2019-04-21T09:06:56.029Z,31.30
2019-04-21T09:09:11.894Z,31.30
2019-04-21T09:11:40.477Z,31.40
2019-04-21T09:14:13.195Z,31.40
2019-04-21T09:16:36.219Z,31.50
2019-04-21T09:19:11.517Z,31.40
2019-04-21T09:21:45.542Z,31.30
2019-04-21T09:24:19.365Z,31.40
2019-04-21T09:26:43.533Z,31.40
2019-04-21T09:29:05.897Z,31.40
2019-04-21T09:31:31.510Z,31.40
2019-04-21T09:34:00.757Z,31.40
2019-04-21T09:36:36.242Z,31.30
2019-04-21T09:39:05.513Z,31.00
2019-04-21T09:41:30.072Z,31.00
2019-04-21T09:43:59.737Z,31.20
2019-04-21T09:46:29.884Z,31.30
2019-04-21T09:49:02.679Z,31.40
2019-04-21T09:51:30.455Z,31.60
2019-04-21T09:54:07.331Z,31.60
2019-04-21T09:56:39.553Z,31.40
2019-04-21T09:59:11.334Z,31.60
2019-04-21T10:01:46.240Z,31.50
2019-04-21T10:04:05.483Z,31.60
2019-04-21T10:06:33.233Z,31.60
2019-04-21T10:09:04.695Z,31.80
2019-04-21T10:11:33.296Z,32.00
2019-04-21T10:14:03.300Z,31.90
2019-04-21T10:16:46.955Z,32.00
2019-04-21T10:19:15.852Z,32.20
2019-04-21T10:21:44.668Z,32.30
2019-04-21T10:24:13.511Z,32.00
2019-04-21T10:26:43.084Z,31.90
2019-04-21T10:29:16.973Z,31.80
2019-04-21T10:31:42.819Z,31.50
2019-04-21T10:34:11.810Z,31.50
2019-04-21T10:36:42.867Z,31.40
2019-04-21T10:39:11.869Z,30.80
2019-04-21T10:41:41.525Z,30.30
2019-04-21T10:44:11.437Z,30.70
2019-04-21T10:46:40.674Z,30.10
2019-04-21T10:49:10.774Z,29.90
2019-04-21T10:51:39.734Z,30.00
2019-04-21T10:54:09.827Z,30.00
2019-04-21T10:56:58.680Z,30.10
2019-04-21T10:59:27.463Z,30.10
2019-04-21T11:01:56.830Z,30.40
2019-04-21T11:04:35.201Z,30.50
2019-04-21T11:07:11.390Z,30.40
2019-04-21T11:09:36.213Z,30.10
2019-04-21T11:12:06.249Z,30.00
2019-04-21T11:14:35.607Z,30.30
2019-04-21T11:17:06.057Z,30.40
2019-04-21T11:19:35.056Z,29.30
2019-04-21T11:22:05.055Z,29.30
2019-04-21T11:24:35.076Z,29.70
2019-04-21T11:27:04.724Z,29.90
2019-04-21T11:29:33.486Z,30.00
2019-04-21T11:32:03.047Z,30.70
2019-04-21T11:34:31.916Z,30.10
2019-04-21T11:37:01.880Z,30.20
2019-04-21T11:39:44.568Z,30.30
2019-04-21T11:42:06.015Z,30.50
2019-04-21T11:44:35.335Z,30.70
2019-04-21T11:47:07.547Z,30.90
2019-04-21T11:49:36.999Z,31.00
2019-04-21T11:52:07.033Z,31.10
2019-04-21T11:54:37.039Z,31.40
2019-04-21T11:57:12.360Z,31.60
2019-04-21T11:59:37.592Z,32.50
2019-04-21T12:02:09.754Z,31.90
2019-04-21T12:04:39.296Z,32.00
2019-04-21T12:07:09.190Z,32.10
2019-04-21T12:09:38.027Z,32.30
2019-04-21T12:12:11.512Z,32.40
2019-04-21T12:14:41.741Z,32.50
2019-04-21T12:17:12.025Z,32.70
2019-04-21T12:19:41.035Z,32.80
2019-04-21T12:22:18.916Z,33.00
2019-04-21T12:24:40.978Z,33.00
2019-04-21T12:27:09.935Z,33.20
2019-04-21T12:29:39.899Z,33.30
2019-04-21T12:32:22.222Z,33.50
2019-04-21T12:34:52.173Z,33.60
2019-04-21T12:37:22.758Z,33.70
2019-04-21T12:39:52.545Z,33.80
2019-04-21T12:42:22.794Z,33.90
2019-04-21T12:44:51.865Z,34.00
2019-04-21T12:47:21.978Z,34.10
2019-04-21T12:49:52.022Z,34.10
2019-04-21T12:52:21.845Z,34.30
2019-04-21T12:54:51.467Z,34.30
2019-04-21T12:57:21.407Z,34.40
2019-04-21T12:59:50.922Z,34.60
2019-04-21T13:02:19.895Z,34.60
2019-04-21T13:04:49.717Z,34.70
2019-04-21T13:07:19.462Z,34.80
2019-04-21T13:09:48.567Z,34.80
2019-04-21T13:12:17.455Z,34.90
2019-04-21T13:14:47.401Z,35.30
2019-04-21T13:17:17.290Z,35.10
2019-04-21T13:19:47.292Z,35.10
2019-04-21T13:22:16.335Z,35.20
2019-04-21T13:24:45.150Z,35.20
2019-04-21T13:27:15.446Z,35.30
2019-04-21T13:29:44.519Z,35.30
2019-04-21T13:32:14.398Z,35.40
2019-04-21T13:34:44.262Z,35.40
2019-04-21T13:37:15.244Z,35.50
2019-04-21T13:40:14.660Z,35.50
2019-04-21T13:42:34.180Z,35.60
2019-04-21T13:44:57.916Z,35.80
2019-04-21T13:47:26.431Z,36.00
2019-04-21T13:49:57.852Z,35.70
2019-04-21T13:52:26.850Z,35.80
2019-04-21T13:54:55.950Z,35.80
2019-04-21T13:57:26.224Z,35.80
2019-04-21T13:59:55.178Z,35.90
2019-04-21T14:02:24.750Z,36.00
2019-04-21T14:04:53.807Z,36.00
2019-04-21T14:07:43.905Z,36.10
2019-04-21T14:10:14.290Z,35.80
2019-04-21T14:12:44.507Z,36.20
2019-04-21T14:15:14.626Z,36.10
2019-04-21T14:17:44.584Z,36.20
2019-04-21T14:20:13.553Z,36.20
2019-04-21T14:22:42.423Z,36.30
2019-04-21T14:25:12.133Z,36.40
2019-04-21T14:27:45.669Z,36.30
2019-04-21T14:30:14.461Z,36.40
2019-04-21T14:32:44.340Z,36.50
2019-04-21T14:35:14.681Z,36.50
2019-04-21T14:37:44.521Z,36.60
2019-04-21T14:40:19.066Z,36.60
2019-04-21T14:42:44.412Z,36.70
2019-04-21T14:45:24.986Z,36.70
2019-04-21T14:48:19.093Z,36.80
2019-04-21T14:50:55.872Z,36.80
2019-04-21T14:53:27.623Z,36.80
2019-04-21T14:55:57.540Z,36.80
2019-04-21T14:58:27.385Z,36.90
2019-04-21T15:01:01.982Z,36.90
2019-04-21T15:03:32.087Z,37.00
2019-04-21T15:06:01.213Z,37.10
2019-04-21T15:08:31.214Z,37.00
2019-04-21T15:11:01.093Z,37.00
2019-04-21T15:13:30.158Z,37.10
2019-04-21T15:15:58.927Z,37.10
2019-04-21T15:18:28.585Z,37.10
2019-04-21T15:21:01.366Z,37.20
2019-04-21T15:23:31.986Z,37.20
2019-04-21T15:26:01.960Z,37.20
2019-04-21T15:28:33.572Z,37.20
2019-04-21T15:31:01.271Z,37.90
2019-04-21T15:33:30.666Z,37.20
2019-04-21T15:36:00.740Z,37.20
2019-04-21T15:38:29.894Z,37.30
2019-04-21T15:41:04.091Z,37.30
2019-04-21T15:43:30.607Z,37.30
2019-04-21T15:46:00.642Z,37.30
2019-04-21T15:48:30.822Z,37.40
2019-04-21T15:51:01.992Z,37.40
2019-04-21T15:53:31.966Z,37.40
2019-04-21T15:56:08.851Z,37.40
2019-04-21T15:59:06.484Z,37.50
2019-04-21T16:01:46.783Z,37.50
2019-04-21T16:04:16.848Z,37.60
2019-04-21T16:06:45.767Z,37.60
2019-04-21T16:09:18.597Z,37.60
2019-04-21T16:11:46.130Z,37.60
2019-04-21T16:14:16.557Z,37.60
2019-04-21T16:16:45.480Z,37.70
2019-04-21T16:19:14.398Z,37.70
2019-04-21T16:21:46.288Z,37.70
2019-04-21T16:24:14.249Z,37.70
2019-04-21T16:26:44.312Z,37.70
2019-04-21T16:29:15.442Z,37.80
2019-04-21T16:31:44.439Z,37.80
2019-04-21T16:34:13.735Z,37.80
2019-04-21T16:36:43.544Z,37.80
2019-04-21T16:39:13.534Z,38.60
2019-04-21T16:41:42.588Z,37.90
2019-04-21T16:44:13.400Z,37.90
2019-04-21T16:46:43.369Z,38.00
2019-04-21T16:49:13.723Z,38.00
2019-04-21T16:51:44.213Z,38.00
2019-04-21T16:54:20.083Z,38.10
2019-04-21T16:56:54.110Z,38.10
2019-04-21T16:59:37.199Z,39.60
2019-04-21T17:02:07.032Z,40.80
2019-04-21T17:04:36.448Z,41.50
2019-04-21T17:07:07.186Z,42.10
2019-04-21T17:09:36.834Z,43.10
2019-04-21T17:12:11.409Z,43.80
2019-04-21T17:14:53.208Z,43.60
2019-04-21T17:17:32.884Z,44.70
2019-04-21T17:19:45.525Z,45.40
2019-04-21T17:22:13.477Z,46.00
2019-04-21T17:24:42.587Z,46.60
2019-04-21T17:27:11.361Z,47.40
2019-04-21T17:29:40.884Z,46.00
2019-04-21T17:32:10.356Z,44.30
2019-04-21T17:34:40.618Z,43.10
2019-04-21T17:37:10.975Z,44.20
2019-04-21T17:39:42.944Z,44.00
2019-04-21T17:42:24.287Z,43.90
2019-04-21T17:44:43.363Z,44.00
2019-04-21T17:47:25.230Z,43.90
2019-04-21T17:49:46.672Z,43.90
2019-04-21T17:52:42.771Z,43.60
2019-04-21T17:55:23.009Z,43.90
2019-04-21T17:58:08.363Z,43.90
2019-04-21T18:00:57.802Z,43.80
2019-04-21T18:03:22.728Z,43.90
2019-04-21T18:05:39.389Z,43.90
2019-04-21T18:08:13.848Z,43.80
2019-04-21T18:10:42.200Z,43.80
2019-04-21T18:13:01.446Z,43.70
2019-04-21T18:15:40.266Z,43.80
2019-04-21T18:17:56.492Z,43.60
2019-04-21T18:20:32.233Z,43.70
2019-04-21T18:23:38.225Z,43.50
2019-04-21T18:26:01.414Z,43.20
2019-04-21T18:28:21.182Z,43.10
2019-04-21T18:30:58.377Z,42.90
2019-04-21T18:33:31.854Z,42.70
2019-04-21T18:36:29.265Z,42.60
2019-04-21T18:39:28.520Z,42.20
2019-04-21T18:42:04.937Z,41.90
2019-04-21T18:45:04.866Z,41.70
2019-04-21T18:47:31.593Z,41.50
2019-04-21T18:49:54.315Z,41.20
2019-04-21T18:52:45.319Z,41.20
2019-04-21T18:55:12.904Z,41.10
2019-04-21T18:57:39.342Z,40.90
2019-04-21T19:00:13.478Z,41.00
2019-04-21T19:02:43.940Z,41.40
2019-04-21T19:05:09.915Z,41.30
2019-04-21T19:07:57.268Z,41.20
2019-04-21T19:10:26.818Z,41.10
2019-04-21T19:15:22.615Z,41.20
2019-04-21T19:18:29.366Z,41.30
2019-04-21T19:20:31.337Z,41.30
2019-04-21T19:22:57.021Z,41.40
2019-04-21T19:25:26.921Z,41.50
2019-04-21T19:28:00.266Z,41.60
2019-04-21T19:30:38.504Z,41.60
2019-04-21T19:32:58.000Z,41.80
2019-04-21T19:35:14.826Z,41.80
2019-04-21T19:37:52.041Z,42.00
2019-04-21T19:40:31.322Z,42.10
2019-04-21T19:42:55.842Z,42.20
2019-04-21T19:45:32.175Z,42.40
2019-04-21T19:48:08.046Z,42.40
2019-04-21T19:50:42.425Z,42.40
2019-04-21T19:52:57.402Z,42.70
2019-04-21T19:55:18.216Z,42.70
2019-04-21T19:57:47.200Z,42.70
2019-04-21T20:00:17.382Z,42.70
2019-04-21T20:02:46.317Z,42.80
2019-04-21T20:05:24.437Z,42.70
2019-04-21T20:08:05.435Z,42.70
2019-04-21T20:10:33.261Z,42.80
2019-04-21T20:13:08.630Z,42.80
2019-04-21T20:15:41.941Z,42.80
2019-04-21T20:18:02.678Z,42.90
2019-04-21T20:20:19.372Z,42.90
2019-04-21T20:22:51.797Z,42.90
2019-04-21T20:25:22.789Z,42.90
2019-04-21T20:28:00.736Z,43.00
2019-04-21T20:30:37.733Z,43.00
2019-04-21T20:33:19.761Z,43.10
2019-04-21T20:35:46.561Z,43.10
2019-04-21T20:38:09.736Z,43.20
2019-04-21T20:40:30.872Z,43.30
2019-04-21T20:43:13.479Z,43.30
2019-04-21T20:45:40.292Z,43.20
2019-04-21T20:47:56.049Z,43.40
2019-04-21T20:50:36.464Z,43.40
2019-04-21T20:53:11.268Z,43.50
2019-04-21T20:55:43.076Z,43.40
2019-04-21T20:58:09.169Z,43.40
2019-04-21T21:00:56.210Z,43.40
2019-04-21T21:03:23.418Z,43.40
2019-04-21T21:05:42.536Z,43.40
2019-04-21T21:08:19.719Z,43.50
2019-04-21T21:10:45.800Z,43.50
2019-04-21T21:13:26.572Z,43.50
2019-04-21T21:15:52.609Z,43.40
2019-04-21T21:18:38.484Z,43.30
2019-04-21T21:20:49.792Z,43.30
2019-04-21T21:23:14.461Z,43.30
2019-04-21T21:25:51.070Z,43.30
2019-04-21T21:28:17.108Z,43.30
2019-04-21T21:30:46.816Z,43.30
2019-04-21T21:33:25.617Z,43.10
2019-04-21T21:35:46.600Z,43.00
2019-04-21T21:38:28.382Z,43.00
2019-04-21T21:40:51.496Z,42.90
2019-04-21T21:43:12.799Z,42.90
2019-04-21T21:45:42.360Z,42.80
2019-04-21T21:48:28.984Z,42.80
2019-04-21T21:50:51.280Z,42.80
2019-04-21T21:53:16.480Z,42.80
2019-04-21T21:55:40.597Z,42.70
2019-04-21T21:58:10.469Z,42.60
2019-04-21T22:00:43.140Z,42.50
2019-04-21T22:03:20.972Z,42.50
2019-04-21T22:05:48.580Z,42.60
2019-04-21T22:08:12.388Z,42.50
2019-04-21T22:10:41.316Z,42.50
2019-04-21T22:13:15.911Z,42.30
2019-04-21T22:15:41.628Z,42.40
2019-04-21T22:18:28.683Z,43.00
2019-04-21T22:20:59.306Z,42.30
2019-04-21T22:23:25.443Z,42.20
2019-04-21T22:25:43.971Z,42.20
2019-04-21T22:28:13.887Z,42.20
2019-04-21T22:30:47.507Z,42.30
2019-04-21T22:33:18.134Z,42.20
2019-04-21T22:35:53.324Z,42.20
2019-04-21T22:38:34.801Z,42.10
2019-04-21T22:41:00.390Z,42.10
2019-04-21T22:43:26.587Z,42.10
2019-04-21T22:45:49.514Z,42.00
2019-04-21T22:48:21.739Z,42.00
2019-04-21T22:50:48.617Z,42.00
2019-04-21T22:53:17.940Z,42.00
2019-04-21T22:55:49.492Z,42.00
2019-04-21T22:58:25.949Z,42.00
2019-04-21T23:00:55.001Z,41.90
2019-04-21T23:03:22.906Z,41.90
2019-04-21T23:05:51.892Z,41.80
2019-04-21T23:08:26.632Z,41.80
2019-04-21T23:10:59.163Z,41.70
2019-04-21T23:13:23.505Z,41.70
2019-04-21T23:15:56.820Z,41.70
2019-04-21T23:18:37.423Z,41.60
2019-04-21T23:21:10.212Z,41.60
2019-04-21T23:23:46.786Z,41.80
2019-04-21T23:26:14.383Z,41.60
